createdAt,value
2023-03-24T00:01:57.159Z,98723.00
2023-03-24T00:04:25.249Z,98729.81
2023-03-24T00:06:52.590Z,98737.97
2023-03-24T00:09:20.050Z,98736.31
2023-03-24T00:11:47.393Z,98739.97
2023-03-24T00:14:14.133Z,98732.38
2023-03-24T00:16:45.587Z,98735.81
2023-03-24T00:19:15.233Z,98742.28
2023-03-24T00:21:42.966Z,98741.84
2023-03-24T00:24:11.723Z,98750.13
2023-03-24T00:26:40.673Z,98755.69
2023-03-24T00:29:11.163Z,98755.69
2023-03-24T00:31:40.268Z,98760.41
2023-03-24T00:34:09.086Z,98753.00
2023-03-24T00:36:36.705Z,98746.56
2023-03-24T00:39:05.081Z,98752.03
2023-03-24T00:41:32.208Z,98743.69
2023-03-24T00:44:03.576Z,98746.13
2023-03-24T00:46:30.666Z,98744.34
2023-03-24T00:49:03.948Z,98746.19
2023-03-24T00:51:37.095Z,98741.31
2023-03-24T00:54:05.096Z,98733.75
2023-03-24T00:56:36.074Z,98732.09
2023-03-24T00:59:02.957Z,98736.44
2023-03-24T01:01:34.939Z,98736.88
2023-03-24T01:04:02.761Z,98730.25
2023-03-24T01:06:30.593Z,98727.63
2023-03-24T01:08:57.869Z,98724.88
2023-03-24T01:11:28.549Z,98726.31
2023-03-24T01:13:55.366Z,98716.94
2023-03-24T01:16:25.932Z,98714.19
2023-03-24T01:18:53.172Z,98713.25
2023-03-24T01:21:19.990Z,98708.03
2023-03-24T01:23:47.786Z,98719.97
2023-03-24T01:26:14.787Z,98715.88
2023-03-24T01:28:43.244Z,98713.25
2023-03-24T01:31:11.393Z,98713.50
2023-03-24T01:33:38.625Z,98723.00
2023-03-24T01:36:06.822Z,98719.94
2023-03-24T01:38:34.317Z,98715.94
2023-03-24T01:41:01.625Z,98707.91
2023-03-24T01:43:31.863Z,98710.44
2023-03-24T01:46:21.977Z,98704.22
2023-03-24T01:49:00.208Z,98700.28
2023-03-24T01:51:30.641Z,98695.81
2023-03-24T01:54:08.758Z,98693.78
2023-03-24T01:56:43.318Z,98705.25
2023-03-24T01:59:17.951Z,98688.97
2023-03-24T02:01:45.785Z,98680.16
2023-03-24T02:04:13.984Z,98696.06
2023-03-24T02:06:44.636Z,98686.34
2023-03-24T02:09:14.322Z,98676.41
2023-03-24T02:11:42.074Z,98678.31
2023-03-24T02:14:11.425Z,98689.47
2023-03-24T02:17:12.157Z,98693.22
2023-03-24T02:20:00.889Z,98693.47
2023-03-24T02:22:42.994Z,98689.97
2023-03-24T02:25:40.440Z,98686.19
2023-03-24T02:28:28.791Z,98692.56
2023-03-24T02:31:04.561Z,98693.81
2023-03-24T02:33:34.096Z,98694.78
2023-03-24T02:36:19.762Z,98687.28
2023-03-24T02:38:49.541Z,98690.00
2023-03-24T02:41:28.373Z,98700.91
2023-03-24T02:44:15.819Z,98694.00
2023-03-24T02:46:47.574Z,98686.88
2023-03-24T02:50:03.746Z,98686.09
2023-03-24T02:52:51.410Z,98680.44
2023-03-24T02:55:18.165Z,98683.25
2023-03-24T02:58:23.186Z,98675.16
2023-03-24T03:01:03.041Z,98673.56
2023-03-24T03:03:44.922Z,98675.91
2023-03-24T03:06:33.488Z,98670.06
2023-03-24T03:09:07.842Z,98667.25
2023-03-24T03:11:34.768Z,98672.38
2023-03-24T03:14:06.642Z,98652.47
2023-03-24T03:16:46.814Z,98666.41
2023-03-24T03:19:28.337Z,98677.91
2023-03-24T03:21:58.814Z,98677.56
2023-03-24T03:24:30.729Z,98676.34
2023-03-24T03:27:03.195Z,98661.22
2023-03-24T03:29:35.726Z,98679.78
2023-03-24T03:32:09.430Z,98684.06
2023-03-24T03:34:51.319Z,98693.16
2023-03-24T03:37:46.579Z,98673.50
2023-03-24T03:40:25.358Z,98669.88
2023-03-24T03:42:52.747Z,98673.06
2023-03-24T03:45:19.737Z,98676.66
2023-03-24T03:47:47.211Z,98683.00
2023-03-24T03:50:14.121Z,98674.78
2023-03-24T03:52:41.724Z,98676.72
2023-03-24T03:55:09.183Z,98673.00
2023-03-24T03:57:36.778Z,98665.88
2023-03-24T04:00:12.083Z,98665.88
2023-03-24T04:02:57.359Z,98674.25
2023-03-24T04:05:29.272Z,98668.72
2023-03-24T04:08:32.498Z,98670.41
2023-03-24T04:11:33.006Z,98669.00
2023-03-24T04:14:19.056Z,98668.31
2023-03-24T04:17:08.721Z,98663.59
2023-03-24T04:19:41.723Z,98668.28
2023-03-24T04:22:14.240Z,98665.59
2023-03-24T04:24:40.919Z,98670.28
2023-03-24T04:27:38.527Z,98673.31
2023-03-24T04:30:08.301Z,98660.44
2023-03-24T04:32:58.640Z,98658.31
2023-03-24T04:35:34.357Z,98665.22
2023-03-24T04:38:06.191Z,98657.88
2023-03-24T04:40:34.782Z,98668.56
2023-03-24T04:43:05.685Z,98674.38
2023-03-24T04:45:37.473Z,98676.13
2023-03-24T04:48:08.886Z,98674.78
2023-03-24T04:50:40.590Z,98679.22
2023-03-24T04:53:09.607Z,98685.69
2023-03-24T04:55:57.448Z,98695.50
2023-03-24T04:58:24.242Z,98687.69
2023-03-24T05:00:51.661Z,98688.13
2023-03-24T05:03:19.178Z,98690.78
2023-03-24T05:05:50.564Z,98698.34
2023-03-24T05:08:18.040Z,98689.81
2023-03-24T05:10:45.524Z,98693.81
2023-03-24T05:13:13.220Z,98695.22
2023-03-24T05:15:40.669Z,98689.84
2023-03-24T05:18:07.714Z,98690.53
2023-03-24T05:20:34.508Z,98688.31
2023-03-24T05:23:02.008Z,98693.28
2023-03-24T05:25:28.746Z,98692.88
2023-03-24T05:27:55.725Z,98715.34
2023-03-24T05:30:22.540Z,98716.97
2023-03-24T05:32:49.352Z,98710.22
2023-03-24T05:35:16.214Z,98691.91
2023-03-24T05:37:43.218Z,98700.97
2023-03-24T05:40:10.601Z,98696.03
2023-03-24T05:42:37.383Z,98695.63
2023-03-24T05:45:04.685Z,98691.47
2023-03-24T05:47:31.600Z,98696.81
2023-03-24T05:49:58.379Z,98692.63
2023-03-24T05:52:26.728Z,98696.28
2023-03-24T05:54:54.971Z,98696.97
2023-03-24T05:57:21.756Z,98689.75
2023-03-24T05:59:48.579Z,98694.16
2023-03-24T06:02:15.717Z,98690.72
2023-03-24T06:04:46.773Z,98683.72
2023-03-24T06:07:13.772Z,98692.25
2023-03-24T06:09:42.625Z,98697.16
2023-03-24T06:12:10.434Z,98699.94
2023-03-24T06:14:37.194Z,98700.78
2023-03-24T06:17:03.957Z,98682.88
2023-03-24T06:19:33.031Z,98695.84
2023-03-24T06:22:03.028Z,98706.06
2023-03-24T06:24:30.320Z,98708.84
2023-03-24T06:26:59.277Z,98709.16
2023-03-24T06:29:25.964Z,98704.47
2023-03-24T06:31:52.656Z,98695.09
2023-03-24T06:34:19.428Z,98702.81
2023-03-24T06:36:46.144Z,98689.06
2023-03-24T06:39:13.602Z,98698.72
2023-03-24T06:41:40.790Z,98694.03
2023-03-24T06:44:07.526Z,98701.19
2023-03-24T06:46:34.323Z,98693.22
2023-03-24T06:49:01.522Z,98698.88
2023-03-24T06:51:28.226Z,98700.66
2023-03-24T06:53:54.941Z,98696.81
2023-03-24T06:56:21.741Z,98700.25
2023-03-24T06:58:49.498Z,98693.66
2023-03-24T07:01:16.429Z,98696.63
2023-03-24T07:03:43.820Z,98691.16
2023-03-24T07:06:10.775Z,98695.94
2023-03-24T07:08:38.794Z,98696.81
2023-03-24T07:11:07.743Z,98684.06
2023-03-24T07:13:34.645Z,98696.53
2023-03-24T07:16:01.480Z,98701.50
2023-03-24T07:18:28.442Z,98687.47
2023-03-24T07:20:55.124Z,98695.78
2023-03-24T07:23:21.922Z,98692.22
2023-03-24T07:25:48.653Z,98685.06
2023-03-24T07:28:15.613Z,98685.88
2023-03-24T07:30:42.579Z,98675.94
2023-03-24T07:33:12.936Z,98683.97
2023-03-24T07:35:41.154Z,98680.41
2023-03-24T07:38:08.798Z,98677.88
2023-03-24T07:40:35.720Z,98675.97
2023-03-24T07:43:06.208Z,98660.94
2023-03-24T07:45:33.486Z,98676.28
2023-03-24T07:48:02.383Z,98684.28
2023-03-24T07:50:30.413Z,98674.03
2023-03-24T07:52:59.972Z,98678.91
2023-03-24T07:55:27.444Z,98672.00
2023-03-24T07:57:54.971Z,98670.09
2023-03-24T08:00:22.553Z,98681.69
2023-03-24T08:02:52.293Z,98684.81
2023-03-24T08:05:20.817Z,98684.75
2023-03-24T08:07:56.010Z,98680.63
2023-03-24T08:10:25.064Z,98686.09
2023-03-24T08:12:52.111Z,98684.78
2023-03-24T08:15:19.228Z,98684.97
2023-03-24T08:17:47.689Z,98702.22
2023-03-24T08:20:15.255Z,98692.38
2023-03-24T08:22:45.044Z,98696.47
2023-03-24T08:25:13.224Z,98689.66
2023-03-24T08:27:40.894Z,98692.28
2023-03-24T08:30:10.736Z,98687.03
2023-03-24T08:32:38.178Z,98703.44
2023-03-24T08:35:06.140Z,98709.09
2023-03-24T08:37:32.928Z,98701.13
2023-03-24T08:40:05.770Z,98701.66
2023-03-24T08:42:32.659Z,98693.84
2023-03-24T08:44:59.377Z,98688.25
2023-03-24T08:47:26.547Z,98702.13
2023-03-24T08:49:58.085Z,98711.06
2023-03-24T08:52:26.143Z,98702.75
2023-03-24T08:54:52.930Z,98711.00
2023-03-24T08:57:19.729Z,98703.81
2023-03-24T08:59:47.303Z,98703.69
2023-03-24T09:02:14.852Z,98697.78
2023-03-24T09:04:43.004Z,98698.38
2023-03-24T09:07:10.800Z,98702.03
2023-03-24T09:09:37.744Z,98691.47
2023-03-24T09:12:04.628Z,98688.59
2023-03-24T09:14:31.527Z,98698.97
2023-03-24T09:16:58.246Z,98697.91
2023-03-24T09:19:25.293Z,98696.88
2023-03-24T09:21:52.149Z,98696.34
2023-03-24T09:24:18.899Z,98705.47
2023-03-24T09:26:45.601Z,98690.94
2023-03-24T09:29:12.449Z,98692.13
2023-03-24T09:31:39.219Z,98678.72
2023-03-24T09:34:05.954Z,98696.88
2023-03-24T09:36:32.755Z,98683.88
2023-03-24T09:38:59.464Z,98676.66
2023-03-24T09:41:29.705Z,98670.84
2023-03-24T09:44:00.888Z,98681.00
2023-03-24T09:46:35.043Z,98669.47
2023-03-24T09:49:03.576Z,98675.00
2023-03-24T09:51:36.446Z,98675.53
2023-03-24T09:54:17.895Z,98684.81
2023-03-24T09:56:46.058Z,98681.94
2023-03-24T09:59:19.943Z,98674.63
2023-03-24T10:01:47.192Z,98676.75
2023-03-24T10:04:22.639Z,98671.19
2023-03-24T10:06:56.079Z,98665.78
2023-03-24T10:09:28.965Z,98678.13
2023-03-24T10:12:14.463Z,98678.47
2023-03-24T10:15:13.115Z,98660.31
2023-03-24T10:17:45.742Z,98667.72
2023-03-24T10:20:34.043Z,98668.41
2023-03-24T10:23:34.827Z,98667.28
2023-03-24T10:26:22.453Z,98669.38
2023-03-24T10:28:58.480Z,98657.50
2023-03-24T10:31:31.597Z,98659.81
2023-03-24T10:33:59.426Z,98666.25
2023-03-24T10:36:28.040Z,98662.44
2023-03-24T10:38:55.618Z,98650.75
2023-03-24T10:41:28.216Z,98659.66
2023-03-24T10:43:57.360Z,98653.22
2023-03-24T10:46:27.253Z,98647.25
2023-03-24T10:49:21.634Z,98661.84
2023-03-24T10:52:01.446Z,98653.16
2023-03-24T10:54:30.144Z,98646.19
2023-03-24T10:57:03.926Z,98650.50
2023-03-24T10:59:47.905Z,98643.50
2023-03-24T11:02:21.470Z,98649.81
2023-03-24T11:04:56.277Z,98667.06
2023-03-24T11:07:29.747Z,98659.72
2023-03-24T11:09:58.497Z,98651.47
2023-03-24T11:12:28.386Z,98652.63
2023-03-24T11:15:29.366Z,98646.06
2023-03-24T11:17:58.568Z,98654.63
2023-03-24T11:20:48.383Z,98656.81
2023-03-24T11:23:20.141Z,98661.13
2023-03-24T11:26:16.816Z,98658.88
2023-03-24T11:28:57.178Z,98666.41
2023-03-24T11:31:26.872Z,98682.50
2023-03-24T11:34:10.274Z,98668.25
2023-03-24T11:36:58.576Z,98669.31
2023-03-24T11:39:27.808Z,98664.69
2023-03-24T11:42:27.247Z,98672.00
2023-03-24T11:44:55.469Z,98664.63
2023-03-24T11:47:24.707Z,98666.41
2023-03-24T11:50:09.696Z,98677.69
2023-03-24T11:53:15.003Z,98681.75
2023-03-24T11:55:54.710Z,98685.47
2023-03-24T11:58:47.415Z,98681.38
2023-03-24T12:01:25.038Z,98695.25
2023-03-24T12:03:56.726Z,98715.47
2023-03-24T12:06:34.178Z,98709.47
2023-03-24T12:09:27.602Z,98719.56
2023-03-24T12:12:16.115Z,98721.44
2023-03-24T12:14:52.103Z,98710.63
2023-03-24T12:17:25.691Z,98710.78
2023-03-24T12:20:17.322Z,98713.28
2023-03-24T12:22:52.796Z,98724.84
2023-03-24T12:25:40.478Z,98715.13
2023-03-24T12:28:10.211Z,98745.31
2023-03-24T12:31:08.961Z,98742.38
2023-03-24T12:34:04.211Z,98740.75
2023-03-24T12:36:54.926Z,98749.50
2023-03-24T12:39:32.186Z,98761.38
2023-03-24T12:42:12.707Z,98724.94
2023-03-24T12:45:01.633Z,98760.28
2023-03-24T12:47:59.327Z,98760.06
2023-03-24T12:50:41.376Z,98766.44
2023-03-24T12:53:26.215Z,98759.78
2023-03-24T12:55:59.830Z,98743.56
2023-03-24T12:58:35.377Z,98744.59
2023-03-24T13:01:14.430Z,98741.84
2023-03-24T13:03:48.813Z,98755.78
2023-03-24T13:06:22.162Z,98760.94
2023-03-24T13:09:15.598Z,98768.47
2023-03-24T13:11:50.222Z,98761.66
2023-03-24T13:14:25.560Z,98769.19
2023-03-24T13:17:01.042Z,98774.69
2023-03-24T13:19:27.955Z,98766.72
2023-03-24T13:21:56.612Z,98781.25
2023-03-24T13:24:26.181Z,98769.50
2023-03-24T13:27:19.948Z,98778.28
2023-03-24T13:30:09.247Z,98772.66
2023-03-24T13:32:42.315Z,98770.44
2023-03-24T13:35:15.221Z,98777.31
2023-03-24T13:38:00.788Z,98772.16
2023-03-24T13:40:30.467Z,98786.88
2023-03-24T13:42:59.355Z,98789.44
2023-03-24T13:45:49.025Z,98764.34
2023-03-24T13:48:36.696Z,98786.78
2023-03-24T13:51:06.704Z,98786.72
2023-03-24T13:53:36.353Z,98791.34
2023-03-24T13:56:05.960Z,98805.50
2023-03-24T13:59:18.834Z,98803.66
2023-03-24T14:02:11.457Z,98806.91
2023-03-24T14:05:22.981Z,98811.19
2023-03-24T14:07:51.788Z,98813.84
2023-03-24T14:10:20.805Z,98826.69
2023-03-24T14:13:13.650Z,98822.09
2023-03-24T14:15:50.766Z,98829.13
2023-03-24T14:18:23.759Z,98826.38
2023-03-24T14:20:56.618Z,98838.47
2023-03-24T14:23:35.503Z,98843.50
2023-03-24T14:26:02.294Z,98831.22
2023-03-24T14:28:37.176Z,98827.13
2023-03-24T14:31:17.100Z,98852.41
2023-03-24T14:33:52.866Z,98863.63
2023-03-24T14:36:46.175Z,98853.56
2023-03-24T14:39:48.941Z,98839.88
2023-03-24T14:42:33.842Z,98830.56
2023-03-24T14:45:07.208Z,98854.50
2023-03-24T14:47:41.159Z,98855.97
2023-03-24T14:50:18.927Z,98861.09
2023-03-24T14:52:53.024Z,98871.31
2023-03-24T14:55:21.931Z,98859.69
2023-03-24T14:57:54.489Z,98867.22
2023-03-24T15:00:26.312Z,98879.13
2023-03-24T15:02:58.661Z,98879.41
2023-03-24T15:05:30.170Z,98895.28
2023-03-24T15:08:19.052Z,98885.03
2023-03-24T15:10:50.977Z,98892.59
2023-03-24T15:13:27.964Z,98903.06
2023-03-24T15:15:54.987Z,98889.66
2023-03-24T15:18:22.575Z,98896.16
2023-03-24T15:20:51.155Z,98898.00
2023-03-24T15:23:26.501Z,98911.53
2023-03-24T15:25:54.695Z,98904.03
2023-03-24T15:28:30.795Z,98918.59
2023-03-24T15:31:01.841Z,98901.75
2023-03-24T15:33:31.289Z,98906.13
2023-03-24T15:36:00.194Z,98911.28
2023-03-24T15:38:32.395Z,98913.09
2023-03-24T15:41:10.096Z,98919.69
2023-03-24T15:43:43.947Z,98923.31
2023-03-24T15:46:31.231Z,98918.25
2023-03-24T15:49:00.047Z,98938.47
2023-03-24T15:51:49.459Z,98950.34
2023-03-24T15:54:40.908Z,98939.69
2023-03-24T15:57:25.085Z,98941.13
2023-03-24T15:59:59.204Z,98945.56
2023-03-24T16:02:39.152Z,98946.13
2023-03-24T16:05:33.732Z,98950.56
2023-03-24T16:08:25.913Z,98958.28
2023-03-24T16:11:08.046Z,98964.78
2023-03-24T16:13:35.534Z,98950.00
2023-03-24T16:16:14.274Z,98958.69
2023-03-24T16:18:47.150Z,98954.00
2023-03-24T16:21:16.781Z,98984.75
2023-03-24T16:23:44.651Z,98989.00
2023-03-24T16:26:16.944Z,98984.59
2023-03-24T16:28:45.012Z,98974.78
2023-03-24T16:31:22.047Z,98986.53
2023-03-24T16:33:49.287Z,98977.78
2023-03-24T16:36:17.338Z,98975.38
2023-03-24T16:38:45.696Z,98972.91
2023-03-24T16:41:13.377Z,98979.56
2023-03-24T16:43:41.836Z,98980.66
2023-03-24T16:46:33.556Z,98985.78
2023-03-24T16:49:02.616Z,98988.28
2023-03-24T16:51:29.967Z,98990.47
2023-03-24T16:53:57.208Z,99008.44
2023-03-24T16:56:24.458Z,99000.69
2023-03-24T16:58:54.523Z,98992.13
2023-03-24T17:01:33.792Z,99011.44
2023-03-24T17:04:11.301Z,99017.50
2023-03-24T17:06:41.193Z,99041.94
2023-03-24T17:09:08.723Z,99032.94
2023-03-24T17:11:39.377Z,99051.16
2023-03-24T17:14:08.978Z,99042.56
2023-03-24T17:16:38.436Z,99023.78
2023-03-24T17:19:06.340Z,99024.06
2023-03-24T17:21:36.818Z,99036.19
2023-03-24T17:24:04.709Z,99036.19
2023-03-24T17:26:32.201Z,99047.22
2023-03-24T17:28:59.111Z,99042.41
2023-03-24T17:31:25.883Z,99049.41
2023-03-24T17:33:52.599Z,99051.41
2023-03-24T17:36:19.339Z,99062.03
2023-03-24T17:38:48.085Z,99065.75
2023-03-24T17:41:14.951Z,99061.88
2023-03-24T17:43:42.154Z,99071.94
2023-03-24T17:46:09.065Z,99076.59
2023-03-24T17:48:37.270Z,99086.25
2023-03-24T17:51:04.541Z,99088.28
2023-03-24T17:53:33.642Z,99105.13
2023-03-24T17:56:05.760Z,99094.78
2023-03-24T17:58:33.842Z,99107.69
2023-03-24T18:01:08.143Z,99113.50
2023-03-24T18:03:38.247Z,99120.53
2023-03-24T18:06:12.754Z,99124.03
2023-03-24T18:08:39.789Z,99138.41
2023-03-24T18:11:09.254Z,99138.66
2023-03-24T18:13:37.025Z,99134.66
2023-03-24T18:16:19.968Z,99151.50
2023-03-24T18:18:49.137Z,99157.94
2023-03-24T18:21:16.209Z,99141.78
2023-03-24T18:23:42.927Z,99148.25
2023-03-24T18:26:09.689Z,99144.78
2023-03-24T18:28:38.030Z,99146.44
2023-03-24T18:31:15.936Z,99160.94
2023-03-24T18:33:46.122Z,99162.75
2023-03-24T18:36:16.569Z,99166.28
2023-03-24T18:38:44.463Z,99171.34
2023-03-24T18:41:14.062Z,99185.09
2023-03-24T18:43:41.215Z,99183.22
2023-03-24T18:46:09.992Z,99186.41
2023-03-24T18:48:37.747Z,99198.63
2023-03-24T18:51:05.657Z,99191.44
2023-03-24T18:53:35.913Z,99187.66
2023-03-24T18:56:04.599Z,99197.75
2023-03-24T18:58:31.660Z,99203.00
2023-03-24T19:00:59.218Z,99203.81
2023-03-24T19:03:27.355Z,99192.53
2023-03-24T19:05:54.255Z,99215.13
2023-03-24T19:08:22.000Z,99206.13
2023-03-24T19:10:49.246Z,99204.91
2023-03-24T19:13:17.051Z,99219.38
2023-03-24T19:15:48.234Z,99221.19
2023-03-24T19:18:15.678Z,99227.00
2023-03-24T19:20:42.677Z,99239.72
2023-03-24T19:23:09.708Z,99240.53
2023-03-24T19:25:36.553Z,99227.81
2023-03-24T19:28:03.424Z,99252.03
2023-03-24T19:30:30.165Z,99267.53
2023-03-24T19:32:57.298Z,99284.22
2023-03-24T19:35:24.401Z,99271.28
2023-03-24T19:37:51.248Z,99281.00
2023-03-24T19:40:18.151Z,99285.94
2023-03-24T19:42:45.288Z,99286.69
2023-03-24T19:45:16.515Z,99293.25
2023-03-24T19:47:43.975Z,99294.84
2023-03-24T19:50:11.355Z,99299.44
2023-03-24T19:52:38.140Z,99308.19
2023-03-24T19:55:06.746Z,99299.63
2023-03-24T19:57:33.736Z,99306.09
2023-03-24T20:00:00.783Z,99322.28
2023-03-24T20:02:28.669Z,99309.31
2023-03-24T20:04:55.617Z,99328.97
2023-03-24T20:07:23.141Z,99327.41
2023-03-24T20:09:50.111Z,99347.28
2023-03-24T20:12:16.858Z,99339.78
2023-03-24T20:14:44.453Z,99334.28
2023-03-24T20:17:20.335Z,99340.13
2023-03-24T20:19:48.122Z,99338.72
2023-03-24T20:22:15.725Z,99355.84
2023-03-24T20:24:44.641Z,99349.00
2023-03-24T20:27:11.685Z,99354.03
2023-03-24T20:29:39.753Z,99361.84
2023-03-24T20:32:08.324Z,99360.28
2023-03-24T20:34:35.048Z,99367.44
2023-03-24T20:37:01.778Z,99380.53
2023-03-24T20:39:28.689Z,99392.69
2023-03-24T20:41:55.603Z,99402.19
2023-03-24T20:44:22.395Z,99404.03
2023-03-24T20:46:49.547Z,99403.34
2023-03-24T20:49:17.645Z,99406.78
2023-03-24T20:51:45.326Z,99408.34
2023-03-24T20:54:12.199Z,99414.28
2023-03-24T20:56:38.983Z,99421.50
2023-03-24T20:59:07.063Z,99435.97
2023-03-24T21:01:42.052Z,99430.25
2023-03-24T21:04:10.161Z,99444.31
2023-03-24T21:06:40.880Z,99445.75
2023-03-24T21:09:08.096Z,99430.44
2023-03-24T21:11:34.950Z,99424.78
2023-03-24T21:14:02.801Z,99434.44
2023-03-24T21:16:33.960Z,99435.16
2023-03-24T21:19:01.988Z,99439.16
2023-03-24T21:21:29.734Z,99440.88
2023-03-24T21:23:57.716Z,99445.09
2023-03-24T21:26:25.397Z,99454.38
2023-03-24T21:28:53.064Z,99464.88
2023-03-24T21:31:27.838Z,99471.78
2023-03-24T21:33:56.264Z,99480.38
2023-03-24T21:36:25.055Z,99477.94
2023-03-24T21:38:54.129Z,99488.19
2023-03-24T21:41:22.385Z,99491.31
2023-03-24T21:43:54.581Z,99491.44
2023-03-24T21:46:22.587Z,99492.97
2023-03-24T21:48:55.704Z,99498.09
2023-03-24T21:51:34.044Z,99505.03
2023-03-24T21:54:04.274Z,99511.69
2023-03-24T21:56:32.504Z,99518.69
2023-03-24T21:58:59.751Z,99515.38
2023-03-24T22:01:26.638Z,99521.44
2023-03-24T22:03:54.686Z,99516.81
2023-03-24T22:06:22.862Z,99521.31
2023-03-24T22:08:50.668Z,99524.28
2023-03-24T22:11:19.099Z,99520.47
2023-03-24T22:13:46.709Z,99532.06
2023-03-24T22:16:14.786Z,99531.69
2023-03-24T22:18:41.893Z,99537.41
2023-03-24T22:21:10.590Z,99531.94
2023-03-24T22:23:40.308Z,99530.88
2023-03-24T22:26:10.887Z,99543.13
2023-03-24T22:28:38.989Z,99542.66
2023-03-24T22:31:14.721Z,99543.94
2023-03-24T22:33:41.852Z,99551.31
2023-03-24T22:36:09.536Z,99560.88
2023-03-24T22:38:36.927Z,99562.50
2023-03-24T22:41:06.869Z,99563.50
2023-03-24T22:43:35.395Z,99584.47
2023-03-24T22:46:03.632Z,99602.56
2023-03-24T22:48:32.006Z,99606.16
2023-03-24T22:50:58.960Z,99609.47
2023-03-24T22:53:26.058Z,99607.94
2023-03-24T22:55:53.128Z,99624.63
2023-03-24T22:58:20.538Z,99613.19
2023-03-24T23:00:49.577Z,99611.16
2023-03-24T23:03:16.760Z,99625.31
2023-03-24T23:05:45.751Z,99626.41
2023-03-24T23:08:15.360Z,99628.06
2023-03-24T23:10:44.376Z,99628.06
2023-03-24T23:13:12.072Z,99625.22
2023-03-24T23:15:39.893Z,99627.47
2023-03-24T23:18:06.935Z,99625.56
2023-03-24T23:20:34.411Z,99648.09
2023-03-24T23:23:01.492Z,99648.09
2023-03-24T23:25:31.333Z,99654.53
2023-03-24T23:27:58.963Z,99664.41
2023-03-24T23:30:26.213Z,99664.53
2023-03-24T23:32:53.493Z,99662.72
2023-03-24T23:35:20.423Z,99664.88
2023-03-24T23:37:47.241Z,99663.31
2023-03-24T23:40:15.622Z,99669.50
2023-03-24T23:42:46.697Z,99674.97
2023-03-24T23:45:18.177Z,99678.69
2023-03-24T23:47:47.682Z,99690.25
2023-03-24T23:50:17.656Z,99698.97
2023-03-24T23:52:44.832Z,99704.56
2023-03-24T23:55:13.258Z,99712.19
2023-03-24T23:57:41.437Z,99707.69
